createdAt,value
2023-03-21T00:02:17.210Z,17.05
2023-03-21T00:05:15.049Z,17.35
2023-03-21T00:08:05.618Z,17.15
2023-03-21T00:11:00.644Z,16.35
2023-03-21T00:13:49.726Z,17.30
2023-03-21T00:16:36.697Z,16.95
2023-03-21T00:19:26.726Z,16.95
2023-03-21T00:22:13.080Z,16.77
2023-03-21T00:24:59.878Z,16.75
2023-03-21T00:28:01.450Z,16.20
2023-03-21T00:31:03.182Z,16.08
2023-03-21T00:33:49.852Z,16.48
2023-03-21T00:37:15.940Z,16.60
2023-03-21T00:40:02.822Z,16.77
2023-03-21T00:42:50.649Z,16.33
2023-03-21T00:45:38.238Z,16.25
2023-03-21T00:48:34.318Z,15.98
2023-03-21T00:51:27.503Z,15.40
2023-03-21T00:54:14.670Z,15.95
2023-03-21T00:57:07.718Z,16.60
2023-03-21T00:59:54.869Z,16.70
2023-03-21T01:03:14.075Z,16.38
2023-03-21T01:06:05.295Z,15.63
2023-03-21T01:16:17.908Z,13.75
2023-03-21T01:19:09.441Z,13.18
2023-03-21T01:28:39.526Z,14.35
2023-03-21T01:31:26.944Z,14.45
2023-03-21T01:34:13.775Z,14.43
2023-03-21T01:37:01.683Z,15.40
2023-03-21T01:39:49.387Z,14.55
2023-03-21T01:42:36.222Z,13.75
2023-03-21T01:45:59.975Z,12.20
2023-03-21T01:49:07.225Z,12.18
2023-03-21T01:52:01.045Z,12.95
2023-03-21T01:54:52.166Z,11.90
2023-03-21T01:57:49.459Z,10.40
2023-03-21T02:00:43.924Z,9.82
2023-03-21T02:03:52.748Z,10.38
2023-03-21T02:07:17.978Z,11.02
2023-03-21T02:10:17.582Z,10.88
2023-03-21T02:16:56.270Z,10.75
2023-03-21T02:20:01.729Z,12.50
2023-03-21T02:23:18.439Z,11.38
2023-03-21T02:26:36.113Z,11.15
2023-03-21T02:29:53.227Z,9.95
2023-03-21T02:33:00.257Z,10.52
2023-03-21T02:35:54.542Z,10.00
2023-03-21T02:39:04.962Z,9.95
2023-03-21T02:41:55.678Z,10.07
2023-03-21T02:45:15.786Z,9.88
2023-03-21T02:48:14.589Z,9.70
2023-03-21T02:51:05.888Z,9.07
2023-03-21T02:54:23.730Z,9.98
2023-03-21T02:57:05.681Z,9.48
2023-03-21T02:59:56.922Z,10.73
2023-03-21T03:03:08.331Z,10.18
2023-03-21T03:06:04.093Z,8.90
2023-03-21T03:09:23.142Z,10.63
2023-03-21T03:12:23.932Z,9.85
2023-03-21T03:15:22.178Z,9.63
2023-03-21T03:18:18.714Z,9.57
2023-03-21T03:21:42.419Z,9.52
2023-03-21T03:24:32.879Z,9.52
2023-03-21T03:27:33.395Z,9.77
2023-03-21T03:30:29.691Z,9.60
2023-03-21T03:33:23.668Z,9.98
2023-03-21T03:36:28.406Z,11.35
2023-03-21T03:39:19.297Z,10.73
2023-03-21T03:42:28.201Z,12.63
2023-03-21T03:45:26.733Z,10.32
2023-03-21T03:48:27.724Z,9.43
2023-03-21T03:51:24.552Z,10.80
2023-03-21T03:54:37.487Z,9.68
2023-03-21T03:57:26.666Z,9.40
2023-03-21T04:00:17.350Z,9.50
2023-03-21T04:03:07.465Z,10.27
2023-03-21T04:05:54.283Z,9.43
2023-03-21T04:08:41.576Z,9.80
2023-03-21T04:11:28.044Z,9.77
2023-03-21T04:14:15.536Z,9.45
2023-03-21T04:17:02.952Z,9.55
2023-03-21T04:19:55.622Z,9.80
2023-03-21T04:22:44.227Z,9.40
2023-03-21T04:25:38.668Z,10.60
2023-03-21T04:28:29.871Z,11.77
2023-03-21T04:31:42.945Z,11.48
2023-03-21T04:34:32.851Z,9.82
2023-03-21T04:37:23.727Z,9.90
2023-03-21T04:40:12.447Z,10.25
2023-03-21T04:43:01.513Z,10.20
2023-03-21T04:45:48.131Z,9.90
2023-03-21T04:48:35.734Z,10.05
2023-03-21T04:51:22.241Z,10.88
2023-03-21T04:54:11.893Z,9.68
2023-03-21T04:56:58.837Z,11.35
2023-03-21T04:59:47.311Z,10.98
2023-03-21T05:02:34.473Z,12.32
2023-03-21T05:05:21.200Z,11.27
2023-03-21T05:08:07.972Z,12.82
2023-03-21T05:10:54.850Z,11.32
2023-03-21T05:13:44.058Z,10.57
2023-03-21T05:16:31.082Z,12.57
2023-03-21T05:19:24.260Z,12.30
2023-03-21T05:22:12.303Z,13.80
2023-03-21T05:25:00.356Z,17.17
2023-03-21T05:28:08.137Z,16.83
2023-03-21T05:30:54.547Z,20.52
2023-03-21T05:33:41.419Z,21.05
2023-03-21T05:36:28.086Z,24.38
2023-03-21T05:39:15.052Z,26.08
2023-03-21T05:42:10.206Z,22.00
2023-03-21T05:44:57.280Z,18.15
2023-03-21T05:47:50.559Z,14.23
2023-03-21T05:50:39.434Z,13.38
2023-03-21T05:53:33.429Z,12.73
2023-03-21T05:56:20.534Z,12.93
2023-03-21T05:59:14.529Z,13.38
2023-03-21T06:02:04.292Z,12.27
2023-03-21T06:04:51.213Z,13.30
2023-03-21T06:07:40.966Z,13.00
2023-03-21T06:10:27.695Z,13.48
2023-03-21T06:13:16.285Z,12.73
2023-03-21T06:16:02.790Z,14.32
2023-03-21T06:18:53.252Z,14.07
2023-03-21T06:22:08.660Z,13.55
2023-03-21T06:24:58.919Z,12.27
2023-03-21T06:27:45.746Z,13.63
2023-03-21T06:30:32.755Z,14.60
2023-03-21T06:33:43.016Z,13.65
2023-03-21T06:36:29.903Z,13.65
2023-03-21T06:39:16.777Z,14.98
2023-03-21T06:42:05.498Z,16.85
2023-03-21T06:44:52.225Z,16.15
2023-03-21T06:47:39.435Z,16.08
2023-03-21T06:50:33.174Z,14.43
2023-03-21T06:53:21.309Z,14.25
2023-03-21T06:56:27.781Z,13.43
2023-03-21T06:59:14.794Z,14.02
2023-03-21T07:02:11.715Z,13.65
2023-03-21T07:05:10.117Z,14.65
2023-03-21T07:07:56.898Z,13.95
2023-03-21T07:10:47.647Z,13.13
2023-03-21T07:13:35.428Z,14.40
2023-03-21T07:16:25.346Z,13.45
2023-03-21T07:19:11.926Z,17.40
2023-03-21T07:21:58.503Z,15.45
2023-03-21T07:24:55.932Z,16.17
2023-03-21T07:27:49.736Z,14.38
2023-03-21T07:30:37.219Z,14.23
2023-03-21T07:33:24.925Z,14.25
2023-03-21T07:36:15.596Z,16.73
2023-03-21T07:39:02.343Z,19.50
2023-03-21T07:41:49.701Z,16.52
2023-03-21T07:44:59.716Z,15.53
2023-03-21T07:47:52.107Z,15.70
2023-03-21T07:50:40.152Z,16.63
2023-03-21T07:53:26.726Z,14.35
2023-03-21T07:56:13.548Z,15.10
2023-03-21T07:58:59.842Z,17.20
2023-03-21T08:01:46.620Z,15.65
2023-03-21T08:04:32.720Z,17.63
2023-03-21T08:07:21.352Z,16.65
2023-03-21T08:10:12.045Z,14.57
2023-03-21T08:13:01.592Z,12.60
2023-03-21T08:15:47.972Z,13.50
2023-03-21T08:18:34.878Z,13.70
2023-03-21T08:21:21.604Z,12.43
2023-03-21T08:24:12.368Z,13.50
2023-03-21T08:26:59.582Z,11.93
2023-03-21T08:29:46.765Z,10.80
2023-03-21T08:32:33.948Z,10.65
2023-03-21T08:35:20.765Z,10.77
2023-03-21T08:38:07.694Z,10.50
2023-03-21T08:40:56.324Z,11.52
2023-03-21T08:43:46.852Z,12.00
2023-03-21T08:46:36.545Z,12.18
2023-03-21T08:49:22.861Z,13.20
2023-03-21T08:52:12.461Z,12.93
2023-03-21T08:54:59.313Z,11.45
2023-03-21T08:57:46.886Z,11.02
2023-03-21T09:00:33.708Z,14.52
2023-03-21T09:03:27.909Z,11.50
2023-03-21T09:06:15.077Z,10.82
2023-03-21T09:09:04.547Z,11.45
2023-03-21T09:11:55.477Z,11.68
2023-03-21T09:14:42.830Z,10.38
2023-03-21T09:17:33.542Z,10.30
2023-03-21T09:20:31.343Z,12.13
2023-03-21T09:23:18.613Z,11.30
2023-03-21T09:26:11.772Z,10.85
2023-03-21T09:28:59.398Z,9.38
2023-03-21T09:31:54.242Z,9.43
2023-03-21T09:37:32.978Z,8.75
2023-03-21T09:40:48.485Z,9.32
2023-03-21T09:43:51.525Z,8.82
2023-03-21T09:47:05.894Z,9.45
2023-03-21T09:50:12.838Z,8.80
2023-03-21T09:53:05.717Z,8.32
2023-03-21T09:55:54.570Z,9.45
2023-03-21T09:58:47.281Z,9.40
2023-03-21T10:01:42.201Z,9.43
2023-03-21T10:04:33.219Z,9.27
2023-03-21T10:07:23.952Z,9.63
2023-03-21T10:10:17.320Z,9.15
2023-03-21T10:13:06.353Z,8.02
2023-03-21T10:15:57.879Z,9.18
2023-03-21T10:18:46.955Z,8.15
2023-03-21T10:21:59.333Z,7.82
2023-03-21T10:24:47.850Z,8.52
2023-03-21T10:27:38.017Z,7.93
2023-03-21T10:30:36.740Z,9.30
2023-03-21T10:33:37.137Z,7.18
2023-03-21T10:36:30.458Z,8.63
2023-03-21T10:39:38.967Z,10.25
2023-03-21T10:42:31.873Z,8.70
2023-03-21T10:45:20.703Z,8.93
2023-03-21T10:48:11.337Z,11.07
2023-03-21T10:50:58.076Z,9.15
2023-03-21T10:54:14.882Z,8.63
2023-03-21T10:57:08.009Z,8.20
2023-03-21T11:00:00.236Z,8.20
2023-03-21T11:02:51.596Z,7.60
2023-03-21T11:05:41.292Z,8.45
2023-03-21T11:08:37.091Z,8.65
2023-03-21T11:11:29.478Z,11.48
2023-03-21T11:14:37.389Z,8.75
2023-03-21T11:17:29.366Z,14.98
2023-03-21T11:20:22.691Z,9.27
2023-03-21T11:23:12.657Z,7.88
2023-03-21T11:26:00.712Z,8.90
2023-03-21T11:28:48.209Z,9.77
2023-03-21T11:31:40.666Z,9.50
2023-03-21T11:34:45.411Z,10.45
2023-03-21T11:37:34.383Z,10.30
2023-03-21T11:40:23.756Z,9.35
2023-03-21T11:43:19.164Z,10.30
2023-03-21T11:46:13.883Z,9.02
2023-03-21T11:49:09.673Z,9.85
2023-03-21T11:52:23.554Z,9.55
2023-03-21T11:55:33.545Z,8.93
2023-03-21T11:58:43.385Z,8.20
2023-03-21T12:02:08.373Z,9.13
2023-03-21T12:05:05.674Z,8.40
2023-03-21T12:07:55.087Z,13.52
2023-03-21T12:10:47.880Z,9.15
2023-03-21T12:13:34.517Z,8.90
2023-03-21T12:16:37.114Z,9.25
2023-03-21T12:19:47.269Z,10.95
2023-03-21T12:22:52.864Z,8.63
2023-03-21T12:25:43.066Z,8.82
2023-03-21T12:28:54.228Z,9.70
2023-03-21T12:32:22.377Z,9.38
2023-03-21T12:35:42.169Z,10.00
2023-03-21T12:38:46.827Z,11.55
2023-03-21T12:41:35.628Z,9.38
2023-03-21T12:44:24.536Z,9.00
2023-03-21T12:47:16.014Z,9.90
2023-03-21T12:50:15.417Z,11.00
2023-03-21T12:53:43.819Z,10.88
2023-03-21T12:56:38.200Z,9.15
2023-03-21T12:59:32.781Z,101.60
2023-03-21T13:02:22.711Z,12.88
2023-03-21T13:05:29.792Z,23.25
2023-03-21T13:08:34.154Z,17.02
2023-03-21T13:11:24.121Z,18.42
2023-03-21T13:14:29.789Z,15.98
2023-03-21T13:17:47.594Z,25.08
2023-03-21T13:21:09.457Z,17.73
2023-03-21T13:24:48.852Z,22.55
2023-03-21T13:27:37.190Z,25.80
2023-03-21T13:30:28.457Z,12.98
2023-03-21T13:33:22.099Z,14.30
2023-03-21T13:36:09.357Z,12.30
2023-03-21T13:39:05.909Z,29.88
2023-03-21T13:41:54.749Z,11.15
2023-03-21T13:44:50.434Z,14.43
2023-03-21T13:47:52.905Z,13.07
2023-03-21T13:51:00.821Z,13.25
2023-03-21T13:54:01.297Z,19.50
2023-03-21T13:56:47.993Z,11.43
2023-03-21T13:59:43.098Z,21.52
2023-03-21T14:02:32.700Z,13.80
2023-03-21T14:05:24.203Z,11.40
2023-03-21T14:08:24.808Z,12.90
2023-03-21T14:11:19.707Z,35.63
2023-03-21T14:14:07.402Z,25.85
2023-03-21T14:16:54.891Z,22.92
2023-03-21T14:19:44.834Z,19.75
2023-03-21T14:22:33.567Z,38.53
2023-03-21T14:25:24.353Z,17.73
2023-03-21T14:28:18.017Z,18.45
2023-03-21T14:31:05.221Z,20.55
2023-03-21T14:33:54.358Z,17.02
2023-03-21T14:36:45.709Z,17.55
2023-03-21T14:39:35.618Z,18.45
2023-03-21T14:42:26.244Z,16.52
2023-03-21T14:45:20.832Z,22.13
2023-03-21T14:48:13.051Z,16.08
2023-03-21T14:51:06.567Z,13.88
2023-03-21T14:53:53.089Z,18.60
2023-03-21T14:56:41.126Z,22.15
2023-03-21T14:59:34.667Z,24.77
2023-03-21T15:02:27.741Z,20.58
2023-03-21T15:05:31.980Z,26.23
2023-03-21T15:08:21.713Z,31.15
2023-03-21T15:11:12.927Z,15.18
2023-03-21T15:14:05.896Z,15.43
2023-03-21T15:16:57.861Z,21.67
2023-03-21T15:19:47.112Z,34.65
2023-03-21T15:22:38.160Z,27.15
2023-03-21T15:25:34.201Z,28.50
2023-03-21T15:28:26.231Z,36.92
2023-03-21T15:31:44.305Z,29.05
2023-03-21T15:34:31.055Z,55.58
2023-03-21T15:37:27.825Z,67.32
2023-03-21T15:40:21.923Z,47.42
2023-03-21T15:43:41.218Z,39.72
2023-03-21T15:46:45.509Z,39.20
2023-03-21T15:49:34.286Z,52.88
2023-03-21T15:52:21.348Z,47.45
2023-03-21T15:55:23.099Z,76.57
2023-03-21T15:58:16.584Z,51.30
2023-03-21T16:01:11.403Z,75.15
2023-03-21T16:04:09.726Z,87.07
2023-03-21T16:07:03.313Z,75.50
2023-03-21T16:09:50.086Z,51.58
2023-03-21T16:12:37.818Z,54.97
2023-03-21T16:15:26.165Z,67.07
2023-03-21T16:18:16.216Z,69.45
2023-03-21T16:21:06.792Z,81.80
2023-03-21T16:23:55.058Z,121.95
2023-03-21T16:26:48.085Z,124.50
2023-03-21T16:29:39.168Z,56.78
2023-03-21T16:32:25.960Z,49.42
2023-03-21T16:35:16.645Z,45.75
2023-03-21T16:38:05.540Z,42.95
2023-03-21T16:41:04.540Z,44.75
2023-03-21T16:43:53.032Z,56.83
2023-03-21T16:46:43.967Z,36.65
2023-03-21T16:49:31.160Z,52.42
2023-03-21T16:52:21.564Z,70.53
2023-03-21T16:55:09.458Z,106.35
2023-03-21T16:58:03.979Z,71.50
2023-03-21T17:00:58.113Z,53.83
2023-03-21T17:03:48.585Z,43.45
2023-03-21T17:06:45.991Z,62.15
2023-03-21T17:09:38.638Z,86.28
2023-03-21T17:12:29.292Z,46.13
2023-03-21T17:15:26.665Z,50.28
2023-03-21T17:18:14.132Z,53.45
2023-03-21T17:21:17.128Z,57.55
2023-03-21T17:24:13.164Z,53.70
2023-03-21T17:27:17.816Z,75.22
2023-03-21T17:33:36.182Z,56.20
2023-03-21T17:36:39.893Z,51.70
2023-03-21T17:39:35.818Z,43.80
2023-03-21T17:42:27.589Z,48.10
2023-03-21T17:45:21.722Z,65.68
2023-03-21T17:48:31.771Z,62.13
2023-03-21T17:51:26.265Z,86.60
2023-03-21T17:54:18.519Z,71.88
2023-03-21T17:57:14.361Z,58.38
2023-03-21T18:00:15.133Z,58.22
2023-03-21T18:03:07.596Z,54.70
2023-03-21T18:06:08.032Z,53.85
2023-03-21T18:12:16.720Z,42.65
2023-03-21T18:15:14.540Z,41.28
2023-03-21T18:18:40.110Z,44.53
2023-03-21T18:21:33.151Z,49.97
2023-03-21T18:24:29.163Z,69.78
2023-03-21T18:27:35.336Z,72.55
2023-03-21T18:31:04.864Z,55.45
2023-03-21T18:34:00.336Z,61.35
2023-03-21T18:37:16.179Z,53.15
2023-03-21T18:40:48.879Z,62.75
2023-03-21T18:44:12.955Z,70.70
2023-03-21T18:47:00.794Z,73.15
2023-03-21T18:53:07.592Z,77.32
2023-03-21T18:56:01.995Z,82.65
2023-03-21T18:58:53.726Z,67.05
2023-03-21T19:01:53.851Z,84.00
2023-03-21T19:05:05.744Z,105.13
2023-03-21T19:08:02.474Z,85.38
2023-03-21T19:11:16.385Z,89.20
2023-03-21T19:14:06.650Z,89.05
2023-03-21T19:18:05.643Z,92.50
2023-03-21T19:20:21.756Z,113.53
2023-03-21T19:23:43.543Z,131.00
2023-03-21T19:26:40.275Z,124.18
2023-03-21T19:29:41.314Z,121.78
2023-03-21T19:32:34.058Z,125.47
2023-03-21T19:35:25.843Z,148.30
2023-03-21T19:38:15.817Z,137.25
2023-03-21T19:41:05.466Z,126.88
2023-03-21T19:43:55.150Z,138.98
2023-03-21T19:46:48.727Z,161.13
2023-03-21T19:50:10.028Z,86.88
2023-03-21T19:52:48.532Z,88.68
2023-03-21T21:34:00.124Z,41.60
2023-03-21T21:36:51.209Z,43.00
2023-03-21T21:39:45.948Z,43.63
2023-03-21T21:42:36.184Z,45.30
2023-03-21T21:45:28.839Z,43.05
2023-03-21T21:48:19.020Z,44.40
2023-03-21T21:51:16.157Z,44.85
2023-03-21T21:54:04.761Z,44.88
2023-03-21T21:57:18.269Z,42.40
2023-03-21T22:00:13.183Z,39.55
2023-03-21T22:03:11.663Z,40.33
2023-03-21T22:06:05.672Z,39.97
2023-03-21T22:08:59.181Z,41.30
2023-03-21T22:11:52.753Z,40.20
2023-03-21T22:14:43.836Z,39.55
2023-03-21T22:17:37.457Z,38.30
2023-03-21T22:20:32.840Z,38.45
2023-03-21T22:23:23.473Z,38.28
2023-03-21T22:26:15.654Z,41.75
2023-03-21T22:29:16.359Z,41.30
2023-03-21T22:32:10.871Z,42.70
2023-03-21T22:35:01.989Z,41.65
2023-03-21T22:37:54.236Z,43.65
2023-03-21T22:40:42.660Z,41.97
2023-03-21T22:43:36.154Z,47.53
2023-03-21T22:46:26.082Z,41.60
2023-03-21T22:49:17.945Z,40.83
2023-03-21T22:52:06.642Z,46.10
2023-03-21T22:54:53.983Z,39.92
2023-03-21T22:57:45.501Z,40.65
2023-03-21T23:00:39.889Z,37.97
2023-03-21T23:03:44.254Z,39.00
2023-03-21T23:06:40.219Z,37.38
2023-03-21T23:09:39.100Z,43.45
2023-03-21T23:12:31.426Z,36.85
2023-03-21T23:15:27.836Z,38.85
2023-03-21T23:18:15.234Z,39.47
2023-03-21T23:21:19.151Z,36.58
2023-03-21T23:24:18.398Z,38.40
2023-03-21T23:27:08.580Z,36.90
2023-03-21T23:29:58.450Z,38.45
2023-03-21T23:32:51.040Z,36.25
2023-03-21T23:36:07.326Z,34.97
2023-03-21T23:38:59.780Z,34.45
2023-03-21T23:42:10.771Z,34.38
2023-03-21T23:45:01.351Z,34.13
2023-03-21T23:47:51.333Z,33.35
2023-03-21T23:50:42.311Z,33.47
2023-03-21T23:59:16.662Z,32.75
